createdAt,value
2023-03-04T00:01:13.884Z,7.86
2023-03-04T00:03:41.588Z,7.86
2023-03-04T00:06:09.444Z,7.85
2023-03-04T00:08:38.837Z,7.85
2023-03-04T00:11:06.654Z,7.85
2023-03-04T00:13:34.452Z,7.82
2023-03-04T00:16:02.283Z,7.82
2023-03-04T00:18:30.070Z,7.80
2023-03-04T00:20:57.783Z,7.80
2023-03-04T00:23:25.599Z,7.80
2023-03-04T00:25:54.737Z,7.79
2023-03-04T00:28:22.446Z,7.81
2023-03-04T00:30:50.227Z,7.80
2023-03-04T00:33:17.998Z,7.81
2023-03-04T00:35:45.819Z,7.79
2023-03-04T00:38:13.714Z,7.80
2023-03-04T00:40:41.539Z,7.78
2023-03-04T00:43:10.603Z,7.77
2023-03-04T00:45:38.540Z,7.77
2023-03-04T00:48:06.764Z,7.76
2023-03-04T00:50:34.562Z,7.73
2023-03-04T00:53:02.803Z,7.73
2023-03-04T00:55:30.473Z,7.73
2023-03-04T00:57:58.330Z,7.73
2023-03-04T01:00:27.884Z,7.71
2023-03-04T01:02:55.594Z,7.70
2023-03-04T01:05:23.480Z,7.71
2023-03-04T01:07:51.191Z,7.71
2023-03-04T01:10:19.262Z,7.72
2023-03-04T01:12:47.051Z,7.73
2023-03-04T01:15:15.590Z,7.73
2023-03-04T01:17:45.815Z,7.74
2023-03-04T01:20:14.502Z,7.76
2023-03-04T01:22:42.377Z,7.74
2023-03-04T01:25:11.463Z,7.75
2023-03-04T01:27:39.182Z,7.74
2023-03-04T01:30:08.316Z,7.74
2023-03-04T01:32:36.023Z,7.72
2023-03-04T01:35:05.635Z,7.72
2023-03-04T01:37:33.368Z,7.72
2023-03-04T01:40:01.140Z,7.71
2023-03-04T01:42:32.993Z,7.69
2023-03-04T01:45:00.798Z,7.68
2023-03-04T01:47:31.078Z,7.65
2023-03-04T01:49:59.849Z,7.64
2023-03-04T01:52:29.190Z,7.65
2023-03-04T01:54:57.192Z,7.66
2023-03-04T01:57:26.576Z,7.63
2023-03-04T02:00:19.804Z,7.63
2023-03-04T02:02:47.932Z,7.62
2023-03-04T02:05:16.095Z,7.65
2023-03-04T02:07:45.203Z,7.66
2023-03-04T02:10:13.617Z,7.65
2023-03-04T02:12:41.917Z,7.66
2023-03-04T02:15:10.402Z,7.68
2023-03-04T02:17:38.313Z,7.69
2023-03-04T02:20:18.378Z,7.69
2023-03-04T02:22:54.933Z,7.68
2023-03-04T02:25:29.393Z,7.69
2023-03-04T02:27:58.512Z,7.67
2023-03-04T02:30:26.431Z,7.63
2023-03-04T02:32:54.252Z,7.61
2023-03-04T02:35:22.827Z,7.62
2023-03-04T02:37:50.612Z,7.66
2023-03-04T02:40:24.764Z,7.66
2023-03-04T02:42:52.532Z,7.66
2023-03-04T02:45:38.628Z,7.64
2023-03-04T02:48:07.108Z,7.64
2023-03-04T02:50:37.817Z,7.64
2023-03-04T02:53:05.784Z,7.63
2023-03-04T02:55:33.927Z,7.63
2023-03-04T02:58:01.781Z,7.64
2023-03-04T03:00:29.866Z,7.63
2023-03-04T03:02:59.297Z,7.62
2023-03-04T03:05:29.878Z,7.62
2023-03-04T03:07:57.682Z,7.61
2023-03-04T03:10:25.508Z,7.59
2023-03-04T03:12:53.617Z,7.60
2023-03-04T03:15:21.924Z,7.59
2023-03-04T03:17:50.122Z,7.60
2023-03-04T03:20:19.714Z,7.60
2023-03-04T03:22:47.942Z,7.54
2023-03-04T03:25:17.448Z,7.57
2023-03-04T03:27:45.173Z,7.57
2023-03-04T03:30:15.126Z,7.54
2023-03-04T03:32:42.844Z,7.53
2023-03-04T03:35:11.165Z,7.51
2023-03-04T03:37:40.244Z,7.54
2023-03-04T03:40:09.132Z,7.55
2023-03-04T03:42:36.853Z,7.56
2023-03-04T03:45:05.124Z,7.57
2023-03-04T03:47:32.892Z,7.55
2023-03-04T03:50:00.639Z,7.55
2023-03-04T03:52:28.324Z,7.52
2023-03-04T03:54:57.432Z,7.54
2023-03-04T03:57:25.125Z,7.54
2023-03-04T03:59:52.845Z,7.54
2023-03-04T04:02:20.670Z,7.55
2023-03-04T04:04:48.456Z,7.54
2023-03-04T04:07:16.224Z,7.54
2023-03-04T04:09:43.918Z,7.54
2023-03-04T04:12:15.546Z,7.51
2023-03-04T04:14:43.535Z,7.51
2023-03-04T04:17:11.434Z,7.54
2023-03-04T04:19:40.735Z,7.54
2023-03-04T04:22:09.170Z,7.51
2023-03-04T04:24:37.039Z,7.48
2023-03-04T04:27:05.437Z,7.48
2023-03-04T04:29:34.495Z,7.49
2023-03-04T04:32:02.261Z,7.49
2023-03-04T04:34:29.967Z,7.49
2023-03-04T04:36:57.799Z,7.49
2023-03-04T04:39:25.527Z,7.47
2023-03-04T04:41:53.256Z,7.48
2023-03-04T04:44:20.945Z,7.47
2023-03-04T04:46:50.010Z,7.48
2023-03-04T04:49:17.725Z,7.47
2023-03-04T04:51:45.445Z,7.47
2023-03-04T04:54:15.290Z,7.46
2023-03-04T04:56:43.409Z,7.44
2023-03-04T04:59:11.161Z,7.46
2023-03-04T05:01:38.952Z,7.45
2023-03-04T05:04:08.013Z,7.44
2023-03-04T05:06:35.768Z,7.41
2023-03-04T05:09:04.352Z,7.43
2023-03-04T05:11:32.066Z,7.40
2023-03-04T05:13:59.843Z,7.38
2023-03-04T05:16:27.635Z,7.39
2023-03-04T05:18:55.381Z,7.38
2023-03-04T05:21:24.484Z,7.37
2023-03-04T05:23:52.256Z,7.35
2023-03-04T05:26:20.205Z,7.33
2023-03-04T05:28:48.206Z,7.34
2023-03-04T05:31:16.520Z,7.32
2023-03-04T05:33:44.548Z,7.32
2023-03-04T05:36:12.296Z,7.32
2023-03-04T05:38:41.480Z,7.32
2023-03-04T05:41:09.505Z,7.34
2023-03-04T05:43:42.657Z,7.30
2023-03-04T05:46:14.419Z,7.20
2023-03-04T05:48:42.350Z,7.28
2023-03-04T05:51:10.480Z,7.28
2023-03-04T05:53:39.978Z,7.27
2023-03-04T05:56:10.957Z,7.28
2023-03-04T05:58:38.937Z,7.23
2023-03-04T06:01:07.371Z,7.26
2023-03-04T06:03:35.142Z,7.27
2023-03-04T06:06:03.038Z,7.26
2023-03-04T06:08:30.802Z,7.25
2023-03-04T06:10:59.115Z,7.24
2023-03-04T06:13:29.059Z,7.25
2023-03-04T06:15:59.212Z,7.24
2023-03-04T06:18:28.413Z,7.22
2023-03-04T06:20:58.668Z,7.17
2023-03-04T06:23:26.509Z,7.25
2023-03-04T06:25:54.733Z,7.26
2023-03-04T06:28:23.156Z,7.26
2023-03-04T06:30:54.363Z,7.18
2023-03-04T06:33:22.283Z,7.19
2023-03-04T06:35:50.070Z,7.22
2023-03-04T06:38:17.793Z,7.18
2023-03-04T06:40:45.959Z,7.21
2023-03-04T06:43:13.704Z,7.15
2023-03-04T06:45:41.454Z,7.13
2023-03-04T06:48:10.567Z,7.14
2023-03-04T06:50:40.324Z,7.15
2023-03-04T06:53:08.112Z,7.22
2023-03-04T06:55:35.921Z,7.19
2023-03-04T06:58:03.746Z,7.19
2023-03-04T07:00:31.863Z,7.22
2023-03-04T07:02:59.810Z,7.22
2023-03-04T07:05:29.075Z,7.13
2023-03-04T07:07:56.913Z,7.19
2023-03-04T07:10:24.629Z,7.22
2023-03-04T07:12:52.350Z,7.22
2023-03-04T07:15:20.251Z,7.23
2023-03-04T07:17:48.015Z,7.23
2023-03-04T07:20:15.837Z,7.24
2023-03-04T07:22:45.070Z,7.24
2023-03-04T07:25:13.253Z,7.25
2023-03-04T07:27:41.041Z,7.24
2023-03-04T07:30:11.052Z,7.23
2023-03-04T07:32:38.897Z,7.24
2023-03-04T07:35:07.751Z,7.24
2023-03-04T07:37:35.481Z,7.25
2023-03-04T07:40:05.102Z,7.27
2023-03-04T07:42:32.850Z,7.26
2023-03-04T07:45:01.848Z,7.27
2023-03-04T07:47:29.692Z,7.23
2023-03-04T07:49:57.401Z,7.33
2023-03-04T07:52:25.109Z,7.43
2023-03-04T07:54:52.872Z,7.45
2023-03-04T07:57:22.010Z,7.46
2023-03-04T07:59:49.702Z,7.46
2023-03-04T08:02:17.485Z,7.45
2023-03-04T08:04:45.262Z,7.43
2023-03-04T08:07:13.018Z,7.43
2023-03-04T08:09:40.776Z,7.40
2023-03-04T08:12:08.694Z,7.57
2023-03-04T08:14:37.926Z,7.78
2023-03-04T08:17:05.670Z,7.93
2023-03-04T08:19:33.502Z,8.15
2023-03-04T08:22:01.668Z,8.30
2023-03-04T08:24:29.587Z,8.46
2023-03-04T08:26:57.462Z,8.62
2023-03-04T08:29:26.874Z,8.71
2023-03-04T08:31:56.728Z,8.62
2023-03-04T08:34:26.760Z,8.50
2023-03-04T08:36:54.828Z,8.35
2023-03-04T08:39:22.510Z,8.23
2023-03-04T08:41:50.611Z,8.10
2023-03-04T08:44:18.318Z,7.98
2023-03-04T08:46:46.287Z,7.88
2023-03-04T08:49:15.551Z,7.84
2023-03-04T08:51:45.196Z,7.81
2023-03-04T08:54:13.053Z,7.79
2023-03-04T08:56:41.832Z,7.76
2023-03-04T08:59:09.612Z,7.75
2023-03-04T09:01:37.420Z,7.68
2023-03-04T09:04:05.344Z,7.64
2023-03-04T09:06:34.458Z,7.64
2023-03-04T09:09:02.206Z,7.65
2023-03-04T09:11:29.958Z,7.65
2023-03-04T09:13:57.786Z,7.64
2023-03-04T09:16:25.793Z,7.62
2023-03-04T09:18:53.570Z,7.56
2023-03-04T09:21:21.289Z,7.56
2023-03-04T09:23:50.553Z,7.53
2023-03-04T09:26:22.145Z,7.47
2023-03-04T09:28:52.507Z,7.46
2023-03-04T09:31:20.859Z,7.46
2023-03-04T09:33:49.668Z,7.41
2023-03-04T09:36:17.585Z,7.38
2023-03-04T09:38:45.782Z,7.36
2023-03-04T09:41:20.060Z,7.38
2023-03-04T09:43:49.678Z,7.42
2023-03-04T09:46:23.564Z,7.42
2023-03-04T09:48:53.843Z,7.44
2023-03-04T09:51:24.582Z,7.46
2023-03-04T09:54:07.881Z,7.50
2023-03-04T09:56:39.930Z,7.58
2023-03-04T09:59:16.946Z,7.61
2023-03-04T10:01:49.532Z,7.64
2023-03-04T10:04:23.149Z,7.69
2023-03-04T10:06:54.606Z,7.69
2023-03-04T10:09:27.066Z,7.70
2023-03-04T10:12:04.096Z,7.72
2023-03-04T10:14:34.668Z,7.73
2023-03-04T10:17:09.847Z,7.72
2023-03-04T10:20:04.797Z,7.69
2023-03-04T10:22:37.283Z,7.65
2023-03-04T10:25:18.960Z,7.58
2023-03-04T10:27:52.732Z,7.63
2023-03-04T10:30:31.509Z,7.58
2023-03-04T10:32:59.359Z,7.60
2023-03-04T10:35:34.387Z,7.66
2023-03-04T10:38:04.613Z,7.71
2023-03-04T10:40:39.878Z,7.72
2023-03-04T10:43:15.708Z,7.73
2023-03-04T10:45:44.550Z,7.75
2023-03-04T10:48:21.388Z,7.79
2023-03-04T10:50:49.140Z,7.83
2023-03-04T10:53:33.357Z,7.86
2023-03-04T10:56:02.790Z,7.86
2023-03-04T10:58:31.911Z,7.82
2023-03-04T11:01:05.555Z,7.82
2023-03-04T11:03:36.728Z,7.82
2023-03-04T11:06:12.060Z,7.78
2023-03-04T11:08:41.024Z,7.76
2023-03-04T11:11:23.649Z,7.70
2023-03-04T11:13:57.328Z,7.81
2023-03-04T11:16:28.771Z,7.81
2023-03-04T11:19:01.512Z,7.81
2023-03-04T11:21:33.120Z,7.72
2023-03-04T11:24:04.769Z,7.82
2023-03-04T11:26:40.629Z,7.81
2023-03-04T11:29:16.965Z,7.79
2023-03-04T11:31:50.508Z,7.80
2023-03-04T11:34:35.657Z,7.83
2023-03-04T11:37:09.037Z,7.87
2023-03-04T11:39:39.539Z,7.91
2023-03-04T11:42:18.286Z,8.03
2023-03-04T11:44:47.390Z,8.18
2023-03-04T11:47:37.588Z,8.29
2023-03-04T11:50:16.533Z,8.51
2023-03-04T11:53:05.861Z,8.74
2023-03-04T11:55:41.745Z,8.88
2023-03-04T11:58:39.269Z,8.91
2023-03-04T12:01:10.563Z,8.85
2023-03-04T12:03:55.429Z,8.74
2023-03-04T12:06:33.072Z,8.60
2023-03-04T12:09:09.918Z,8.52
2023-03-04T12:11:47.315Z,8.47
2023-03-04T12:14:27.172Z,8.40
2023-03-04T12:17:20.509Z,8.31
2023-03-04T12:20:15.332Z,8.22
2023-03-04T12:22:46.162Z,8.13
2023-03-04T12:25:34.177Z,8.08
2023-03-04T12:28:13.865Z,8.03
2023-03-04T12:31:00.973Z,8.02
2023-03-04T12:33:39.872Z,8.07
2023-03-04T12:36:16.106Z,8.09
2023-03-04T12:39:01.490Z,8.13
2023-03-04T12:41:47.418Z,8.15
2023-03-04T12:44:18.168Z,8.22
2023-03-04T12:46:58.910Z,8.26
2023-03-04T12:49:47.499Z,8.31
2023-03-04T12:52:21.009Z,8.34
2023-03-04T12:54:55.464Z,8.34
2023-03-04T12:57:26.230Z,8.31
2023-03-04T13:00:01.269Z,8.35
2023-03-04T13:02:44.147Z,8.32
2023-03-04T13:05:30.709Z,8.31
2023-03-04T13:08:09.913Z,8.31
2023-03-04T13:10:37.776Z,8.34
2023-03-04T13:13:05.775Z,8.36
2023-03-04T13:15:38.891Z,8.36
2023-03-04T13:18:34.962Z,8.45
2023-03-04T13:21:23.923Z,8.64
2023-03-04T13:23:52.442Z,8.86
2023-03-04T13:26:24.681Z,9.04
2023-03-04T13:29:11.088Z,9.27
2023-03-04T13:32:00.624Z,9.51
2023-03-04T13:34:47.779Z,9.66
2023-03-04T13:37:32.621Z,9.64
2023-03-04T13:40:33.081Z,9.51
2023-03-04T13:43:29.935Z,9.35
2023-03-04T13:45:57.693Z,9.26
2023-03-04T13:48:29.991Z,9.34
2023-03-04T13:50:58.933Z,9.50
2023-03-04T13:53:44.207Z,9.70
2023-03-04T13:56:22.172Z,9.90
2023-03-04T13:58:52.093Z,10.13
2023-03-04T14:01:31.778Z,10.34
2023-03-04T14:04:00.222Z,10.50
2023-03-04T14:06:30.458Z,10.56
2023-03-04T14:08:59.681Z,10.67
2023-03-04T14:11:31.511Z,10.75
2023-03-04T14:14:04.709Z,10.77
2023-03-04T14:16:39.242Z,10.76
2023-03-04T14:19:08.926Z,10.77
2023-03-04T14:21:37.764Z,10.76
2023-03-04T14:24:13.033Z,10.71
2023-03-04T14:26:40.788Z,10.53
2023-03-04T14:29:22.668Z,10.30
2023-03-04T14:31:51.093Z,10.11
2023-03-04T14:34:26.228Z,9.95
2023-03-04T14:36:54.380Z,9.82
2023-03-04T14:39:26.935Z,9.71
2023-03-04T14:42:00.823Z,9.62
2023-03-04T14:44:36.065Z,9.57
2023-03-04T14:47:14.928Z,9.50
2023-03-04T14:49:42.771Z,9.46
2023-03-04T14:52:30.909Z,9.42
2023-03-04T14:55:11.027Z,9.37
2023-03-04T14:57:38.816Z,9.27
2023-03-04T15:00:18.803Z,9.13
2023-03-04T15:02:50.869Z,8.98
2023-03-04T15:05:25.846Z,8.90
2023-03-04T15:07:57.132Z,8.96
2023-03-04T15:10:29.446Z,9.14
2023-03-04T15:13:00.029Z,9.28
2023-03-04T15:15:43.657Z,9.55
2023-03-04T15:18:26.206Z,9.86
2023-03-04T15:20:55.970Z,9.88
2023-03-04T15:23:23.917Z,9.73
2023-03-04T15:25:58.221Z,9.56
2023-03-04T15:28:27.585Z,9.46
2023-03-04T15:30:55.561Z,9.38
2023-03-04T15:33:23.375Z,9.35
2023-03-04T15:35:55.053Z,9.27
2023-03-04T15:38:23.494Z,9.19
2023-03-04T15:40:54.316Z,9.11
2023-03-04T15:43:24.185Z,9.10
2023-03-04T15:45:53.102Z,9.07
2023-03-04T15:48:21.646Z,9.09
2023-03-04T15:50:52.317Z,9.08
2023-03-04T15:53:27.088Z,9.07
2023-03-04T15:55:55.293Z,9.07
2023-03-04T15:58:24.537Z,9.05
2023-03-04T16:00:52.406Z,9.07
2023-03-04T16:03:21.648Z,9.01
2023-03-04T16:05:52.528Z,8.96
2023-03-04T16:08:22.379Z,8.92
2023-03-04T16:10:50.152Z,8.91
2023-03-04T16:13:19.753Z,8.92
2023-03-04T16:15:49.727Z,8.91
2023-03-04T16:18:18.166Z,8.88
2023-03-04T16:20:48.502Z,8.74
2023-03-04T16:23:19.644Z,8.82
2023-03-04T16:25:49.158Z,8.78
2023-03-04T16:28:16.857Z,8.75
2023-03-04T16:30:44.666Z,8.77
2023-03-04T16:33:15.048Z,8.81
2023-03-04T16:35:43.990Z,8.84
2023-03-04T16:38:21.715Z,8.84
2023-03-04T16:40:49.632Z,8.86
2023-03-04T16:43:17.334Z,8.82
2023-03-04T16:45:45.380Z,8.81
2023-03-04T16:48:14.458Z,8.82
2023-03-04T16:50:42.683Z,8.83
2023-03-04T16:53:24.648Z,8.83
2023-03-04T16:55:52.684Z,8.84
2023-03-04T16:58:20.422Z,8.82
2023-03-04T17:00:48.238Z,8.84
2023-03-04T17:03:17.325Z,8.84
2023-03-04T17:05:45.338Z,8.84
2023-03-04T17:08:13.017Z,8.83
2023-03-04T17:10:40.889Z,8.85
2023-03-04T17:13:09.003Z,8.85
2023-03-04T17:15:36.790Z,8.85
2023-03-04T17:18:04.896Z,8.85
2023-03-04T17:20:33.992Z,8.84
2023-03-04T17:23:01.848Z,8.85
2023-03-04T17:25:29.668Z,8.85
2023-03-04T17:27:57.413Z,8.84
2023-03-04T17:30:25.137Z,8.84
2023-03-04T17:32:52.891Z,8.81
2023-03-04T17:35:21.202Z,8.80
2023-03-04T17:37:50.690Z,8.80
2023-03-04T17:40:18.567Z,8.81
2023-03-04T17:42:46.307Z,8.82
2023-03-04T17:45:14.007Z,8.83
2023-03-04T17:47:42.106Z,8.82
2023-03-04T17:50:11.163Z,8.81
2023-03-04T17:52:38.995Z,8.80
2023-03-04T17:55:08.876Z,8.79
2023-03-04T17:57:38.336Z,8.76
2023-03-04T18:00:07.400Z,8.76
2023-03-04T18:02:35.092Z,8.77
2023-03-04T18:05:05.671Z,8.76
2023-03-04T18:07:33.441Z,8.74
2023-03-04T18:10:01.189Z,8.73
2023-03-04T18:12:30.500Z,8.71
2023-03-04T18:14:58.393Z,8.69
2023-03-04T18:17:26.527Z,8.60
2023-03-04T18:19:55.233Z,8.66
2023-03-04T18:22:22.989Z,8.65
2023-03-04T18:24:50.700Z,8.67
2023-03-04T18:27:18.450Z,8.66
2023-03-04T18:29:47.527Z,8.64
2023-03-04T18:32:15.422Z,8.63
2023-03-04T18:34:43.306Z,8.63
2023-03-04T18:37:11.004Z,8.60
2023-03-04T18:39:38.891Z,8.58
2023-03-04T18:42:06.725Z,8.59
2023-03-04T18:44:34.470Z,8.60
2023-03-04T18:47:03.841Z,8.62
2023-03-04T18:49:31.628Z,8.65
2023-03-04T18:51:59.336Z,8.66
2023-03-04T18:54:27.070Z,8.67
2023-03-04T18:56:58.184Z,8.67
2023-03-04T18:59:31.425Z,8.66
2023-03-04T19:02:03.121Z,8.65
2023-03-04T19:04:32.660Z,8.64
2023-03-04T19:07:00.703Z,8.63
2023-03-04T19:09:28.748Z,8.59
2023-03-04T19:11:56.492Z,8.61
2023-03-04T19:14:24.257Z,8.62
2023-03-04T19:16:52.050Z,8.66
2023-03-04T19:19:19.800Z,8.69
2023-03-04T19:21:48.955Z,8.71
2023-03-04T19:24:16.800Z,8.72
2023-03-04T19:26:44.549Z,8.72
2023-03-04T19:29:12.458Z,8.72
2023-03-04T19:31:41.806Z,8.72
2023-03-04T19:34:09.559Z,8.69
2023-03-04T19:36:37.304Z,8.67
2023-03-04T19:39:06.913Z,8.67
2023-03-04T19:41:34.668Z,8.66
2023-03-04T19:44:02.576Z,8.64
2023-03-04T19:46:32.238Z,8.64
2023-03-04T19:48:59.999Z,8.63
2023-03-04T19:51:29.067Z,8.62
2023-03-04T19:53:57.166Z,8.62
2023-03-04T19:56:26.499Z,8.59
2023-03-04T19:58:55.042Z,8.58
2023-03-04T20:01:27.834Z,8.57
2023-03-04T20:03:55.918Z,8.55
2023-03-04T20:06:23.881Z,8.51
2023-03-04T20:08:52.177Z,8.52
2023-03-04T20:11:20.211Z,8.50
2023-03-04T20:13:49.372Z,8.51
2023-03-04T20:16:17.208Z,8.50
2023-03-04T20:18:45.032Z,8.50
2023-03-04T20:21:14.089Z,8.50
2023-03-04T20:23:41.836Z,8.47
2023-03-04T20:26:10.400Z,8.48
2023-03-04T20:28:38.190Z,8.45
2023-03-04T20:31:18.513Z,8.44
2023-03-04T20:33:48.586Z,8.40
2023-03-04T20:36:16.433Z,8.37
2023-03-04T20:38:44.474Z,8.37
2023-03-04T20:41:12.352Z,8.34
2023-03-04T20:43:41.410Z,8.34
2023-03-04T20:46:36.921Z,8.36
2023-03-04T20:49:07.627Z,8.35
2023-03-04T20:51:36.270Z,8.29
2023-03-04T20:54:04.795Z,8.32
2023-03-04T20:56:33.924Z,8.32
2023-03-04T20:59:03.682Z,8.31
2023-03-04T21:01:33.057Z,8.28
2023-03-04T21:04:02.619Z,8.31
2023-03-04T21:06:30.493Z,8.30
2023-03-04T21:09:01.151Z,8.28
2023-03-04T21:11:31.292Z,8.28
2023-03-04T21:13:59.059Z,8.27
2023-03-04T21:16:30.199Z,8.27
2023-03-04T21:19:00.024Z,8.26
2023-03-04T21:21:29.702Z,8.25
2023-03-04T21:23:58.963Z,8.24
2023-03-04T21:26:26.932Z,8.24
2023-03-04T21:28:56.329Z,8.23
2023-03-04T21:31:26.824Z,8.20
2023-03-04T21:33:56.172Z,8.19
2023-03-04T21:36:25.272Z,8.20
2023-03-04T21:38:54.260Z,8.20
2023-03-04T21:41:24.554Z,8.20
2023-03-04T21:43:52.971Z,8.16
2023-03-04T21:46:20.753Z,8.21
2023-03-04T21:48:48.492Z,8.20
2023-03-04T21:51:17.734Z,8.21
2023-03-04T21:53:46.900Z,8.22
2023-03-04T21:56:15.609Z,8.20
2023-03-04T21:58:43.354Z,8.19
2023-03-04T22:01:12.623Z,8.19
2023-03-04T22:03:40.546Z,8.20
2023-03-04T22:06:09.797Z,8.19
2023-03-04T22:08:38.353Z,8.18
2023-03-04T22:11:09.090Z,8.17
2023-03-04T22:13:37.306Z,8.14
2023-03-04T22:16:06.597Z,8.15
2023-03-04T22:18:34.866Z,8.12
2023-03-04T22:21:04.969Z,8.12
2023-03-04T22:23:33.535Z,8.10
2023-03-04T22:26:03.464Z,8.11
2023-03-04T22:28:33.146Z,8.10
2023-03-04T22:31:01.942Z,8.10
2023-03-04T22:33:31.565Z,8.09
2023-03-04T22:35:59.848Z,8.07
2023-03-04T22:38:27.612Z,8.04
2023-03-04T22:40:55.334Z,8.03
2023-03-04T22:43:23.031Z,8.00
2023-03-04T22:45:52.209Z,7.97
2023-03-04T22:48:19.958Z,7.89
2023-03-04T22:50:47.736Z,7.97
2023-03-04T22:53:15.434Z,7.94
2023-03-04T22:55:43.104Z,7.91
2023-03-04T22:58:10.982Z,7.92
2023-03-04T23:00:39.067Z,7.92
2023-03-04T23:03:08.648Z,7.92
2023-03-04T23:05:36.503Z,7.91
2023-03-04T23:08:04.234Z,7.90
2023-03-04T23:10:32.023Z,7.88
2023-03-04T23:12:59.993Z,7.88
2023-03-04T23:15:27.965Z,7.86
2023-03-04T23:17:55.678Z,7.86
2023-03-04T23:20:24.810Z,7.86
2023-03-04T23:22:52.608Z,7.84
2023-03-04T23:25:20.562Z,7.84
2023-03-04T23:27:48.318Z,7.81
2023-03-04T23:30:17.614Z,7.80
2023-03-04T23:32:45.763Z,7.79
2023-03-04T23:35:13.556Z,7.78
2023-03-04T23:37:42.621Z,7.79
2023-03-04T23:40:12.105Z,7.76
2023-03-04T23:42:40.897Z,7.76
2023-03-04T23:45:09.652Z,7.73
2023-03-04T23:47:37.394Z,7.70
2023-03-04T23:50:08.555Z,7.69
2023-03-04T23:52:36.440Z,7.70
2023-03-04T23:55:06.415Z,7.70
2023-03-04T23:57:34.157Z,7.68
